createdAt,value
2023-08-15T00:00:28.489Z,1.40
2023-08-15T00:02:54.970Z,1.52
2023-08-15T00:05:21.958Z,1.33
2023-08-15T00:07:49.461Z,1.58
2023-08-15T00:10:16.007Z,1.40
2023-08-15T00:12:42.382Z,1.10
2023-08-15T00:15:10.451Z,1.20
2023-08-15T00:17:36.892Z,1.40
2023-08-15T00:20:03.737Z,1.10
2023-08-15T00:22:30.146Z,1.33
2023-08-15T00:24:56.547Z,1.50
2023-08-15T00:27:23.159Z,1.60
2023-08-15T00:29:49.767Z,1.50
2023-08-15T00:32:16.234Z,1.42
2023-08-15T00:34:42.704Z,1.10
2023-08-15T00:37:09.412Z,1.55
2023-08-15T00:39:35.799Z,1.02
2023-08-15T00:42:02.184Z,1.40
2023-08-15T00:44:28.573Z,1.55
2023-08-15T00:46:55.388Z,1.52
2023-08-15T00:49:22.284Z,1.50
2023-08-15T00:51:51.065Z,1.30
2023-08-15T00:54:18.432Z,1.60
2023-08-15T00:56:44.946Z,1.63
2023-08-15T00:59:11.316Z,1.60
2023-08-15T01:01:37.826Z,1.35
2023-08-15T01:04:05.212Z,1.45
2023-08-15T01:06:31.597Z,1.60
2023-08-15T01:08:58.067Z,1.50
2023-08-15T01:11:27.381Z,1.27
2023-08-15T01:14:03.442Z,1.50
2023-08-15T01:16:37.517Z,1.52
2023-08-15T01:19:16.858Z,1.35
2023-08-15T01:21:48.744Z,1.50
2023-08-15T01:24:16.426Z,1.25
2023-08-15T01:26:42.825Z,1.20
2023-08-15T01:29:09.502Z,1.30
2023-08-15T01:31:41.235Z,1.27
2023-08-15T01:34:17.492Z,1.25
2023-08-15T01:36:57.603Z,1.35
2023-08-15T01:39:29.669Z,1.23
2023-08-15T01:42:00.733Z,1.73
2023-08-15T01:44:29.626Z,1.40
2023-08-15T01:46:57.750Z,1.65
2023-08-15T01:49:24.250Z,1.30
2023-08-15T01:51:51.828Z,1.27
2023-08-15T01:54:18.308Z,1.63
2023-08-15T01:56:44.708Z,1.60
2023-08-15T01:59:11.201Z,1.63
2023-08-15T02:01:37.589Z,1.45
2023-08-15T02:04:04.243Z,1.58
2023-08-15T02:06:30.880Z,1.38
2023-08-15T02:08:57.262Z,1.60
2023-08-15T02:11:23.822Z,1.38
2023-08-15T02:13:50.371Z,1.40
2023-08-15T02:16:19.040Z,1.42
2023-08-15T02:18:45.504Z,1.17
2023-08-15T02:21:11.899Z,1.38
2023-08-15T02:23:39.314Z,1.30
2023-08-15T02:26:05.804Z,1.40
2023-08-15T02:28:35.145Z,1.70
2023-08-15T02:31:05.879Z,1.25
2023-08-15T02:33:33.604Z,1.55
2023-08-15T02:36:06.643Z,1.23
2023-08-15T02:38:36.321Z,1.40
2023-08-15T02:41:03.019Z,1.20
2023-08-15T02:43:29.448Z,1.20
2023-08-15T02:45:55.932Z,1.40
2023-08-15T02:48:22.468Z,1.42
2023-08-15T02:50:48.883Z,1.45
2023-08-15T02:53:15.446Z,1.38
2023-08-15T02:55:41.854Z,1.27
2023-08-15T02:58:08.243Z,1.60
2023-08-15T03:00:38.447Z,1.20
2023-08-15T03:03:05.065Z,1.25
2023-08-15T03:05:31.471Z,1.27
2023-08-15T03:07:57.892Z,1.65
2023-08-15T03:10:24.367Z,1.30
2023-08-15T03:12:50.771Z,1.08
2023-08-15T03:15:17.247Z,1.20
2023-08-15T03:17:43.938Z,1.10
2023-08-15T03:20:11.629Z,1.00
2023-08-15T03:22:38.054Z,1.00
2023-08-15T03:25:05.023Z,1.10
2023-08-15T03:27:31.469Z,1.27
2023-08-15T03:29:57.883Z,1.20
2023-08-15T03:32:24.279Z,1.17
2023-08-15T03:34:50.665Z,1.30
2023-08-15T03:37:17.207Z,1.05
2023-08-15T03:39:43.589Z,1.20
2023-08-15T03:42:10.140Z,1.33
2023-08-15T03:44:36.528Z,1.27
2023-08-15T03:47:02.920Z,1.10
2023-08-15T03:49:29.308Z,1.00
2023-08-15T03:51:55.686Z,1.35
2023-08-15T03:54:22.064Z,0.98
2023-08-15T03:56:48.460Z,0.98
2023-08-15T03:59:14.880Z,1.13
2023-08-15T04:01:41.393Z,1.00
2023-08-15T04:04:08.008Z,1.15
2023-08-15T04:06:34.707Z,1.10
2023-08-15T04:09:01.082Z,1.20
2023-08-15T04:11:27.469Z,0.73
2023-08-15T04:13:53.862Z,1.10
2023-08-15T04:16:20.313Z,1.10
2023-08-15T04:18:46.850Z,1.13
2023-08-15T04:21:13.431Z,1.17
2023-08-15T04:23:39.859Z,1.20
2023-08-15T04:26:07.488Z,1.50
2023-08-15T04:28:34.115Z,1.80
2023-08-15T04:31:00.474Z,2.03
2023-08-15T04:33:26.978Z,2.22
2023-08-15T04:35:53.396Z,1.80
2023-08-15T04:38:19.806Z,1.90
2023-08-15T04:40:46.502Z,1.55
2023-08-15T04:43:12.911Z,1.80
2023-08-15T04:45:44.224Z,1.70
2023-08-15T04:48:11.688Z,1.40
2023-08-15T04:50:39.988Z,1.83
2023-08-15T04:53:07.344Z,1.38
2023-08-15T04:55:34.081Z,1.27
2023-08-15T04:58:00.517Z,1.30
2023-08-15T05:00:26.940Z,1.38
2023-08-15T05:02:53.389Z,1.23
2023-08-15T05:05:19.935Z,1.20
2023-08-15T05:07:46.433Z,1.20
2023-08-15T05:10:12.843Z,1.20
2023-08-15T05:12:39.289Z,1.08
2023-08-15T05:15:09.015Z,1.17
2023-08-15T05:20:04.340Z,1.40
2023-08-15T05:22:31.614Z,1.00
2023-08-15T05:24:58.014Z,1.10
2023-08-15T05:27:24.468Z,1.20
2023-08-15T05:29:50.878Z,0.93
2023-08-15T05:32:17.285Z,1.10
2023-08-15T05:34:43.738Z,1.40
2023-08-15T05:37:10.129Z,1.27
2023-08-15T05:39:36.497Z,1.35
2023-08-15T05:42:02.922Z,1.20
2023-08-15T05:44:29.398Z,1.20
2023-08-15T05:46:55.845Z,1.17
2023-08-15T05:49:22.401Z,1.45
2023-08-15T05:51:48.845Z,1.00
2023-08-15T05:54:15.234Z,1.50
2023-08-15T05:56:41.744Z,1.23
2023-08-15T05:59:08.179Z,0.98
2023-08-15T06:01:34.629Z,1.13
2023-08-15T06:04:02.198Z,1.27
2023-08-15T06:06:28.853Z,1.30
2023-08-15T06:08:56.486Z,1.30
2023-08-15T06:11:22.955Z,1.40
2023-08-15T06:13:49.317Z,1.38
2023-08-15T06:16:15.718Z,1.20
2023-08-15T06:18:42.244Z,1.40
2023-08-15T06:21:08.820Z,1.13
2023-08-15T06:23:36.072Z,1.63
2023-08-15T06:26:02.512Z,1.23
2023-08-15T06:28:29.400Z,1.05
2023-08-15T06:30:55.915Z,1.23
2023-08-15T06:33:22.438Z,1.10
2023-08-15T06:35:48.859Z,1.15
2023-08-15T06:38:15.264Z,1.50
2023-08-15T06:40:41.769Z,1.20
2023-08-15T06:43:08.156Z,1.20
2023-08-15T06:45:37.311Z,1.30
2023-08-15T06:48:06.410Z,1.48
2023-08-15T06:50:33.655Z,1.38
2023-08-15T06:53:00.099Z,1.38
2023-08-15T06:55:27.313Z,1.30
2023-08-15T06:57:54.736Z,1.40
2023-08-15T07:00:21.182Z,1.00
2023-08-15T07:02:47.696Z,1.00
2023-08-15T07:05:14.187Z,1.15
2023-08-15T07:07:40.579Z,1.27
2023-08-15T07:10:07.909Z,1.15
2023-08-15T07:12:35.060Z,1.10
2023-08-15T07:15:02.181Z,1.50
2023-08-15T07:17:28.739Z,1.60
2023-08-15T07:19:55.387Z,0.95
2023-08-15T07:22:22.154Z,1.25
2023-08-15T07:24:48.839Z,1.10
2023-08-15T07:27:15.273Z,1.10
2023-08-15T07:29:41.676Z,1.33
2023-08-15T07:32:10.443Z,1.58
2023-08-15T07:34:38.676Z,1.40
2023-08-15T07:37:05.315Z,1.55
2023-08-15T07:39:32.199Z,1.40
2023-08-15T07:41:58.591Z,1.10
2023-08-15T07:44:26.808Z,1.33
2023-08-15T07:46:53.819Z,1.33
2023-08-15T07:49:20.358Z,1.30
2023-08-15T07:51:46.763Z,1.20
2023-08-15T07:54:14.456Z,1.45
2023-08-15T07:56:41.438Z,0.98
2023-08-15T07:59:07.996Z,1.20
2023-08-15T08:01:34.496Z,1.20
2023-08-15T08:04:01.820Z,1.30
2023-08-15T08:06:39.795Z,1.30
2023-08-15T08:09:07.500Z,1.27
2023-08-15T08:11:33.995Z,1.33
2023-08-15T08:14:00.386Z,1.50
2023-08-15T08:16:27.945Z,2.22
2023-08-15T08:18:54.792Z,1.48
2023-08-15T08:21:21.384Z,1.42
2023-08-15T08:23:47.875Z,1.30
2023-08-15T08:26:14.332Z,1.45
2023-08-15T08:28:40.921Z,1.30
2023-08-15T08:31:08.205Z,1.63
2023-08-15T08:33:34.757Z,1.35
2023-08-15T08:36:01.329Z,1.10
2023-08-15T08:38:28.606Z,1.20
2023-08-15T08:40:56.594Z,1.00
2023-08-15T08:43:23.669Z,1.13
2023-08-15T08:45:52.447Z,1.10
2023-08-15T08:48:22.611Z,1.00
2023-08-15T08:50:49.850Z,1.08
2023-08-15T08:53:16.503Z,0.77
2023-08-15T08:55:48.256Z,0.85
2023-08-15T08:58:15.104Z,0.75
2023-08-15T09:00:41.864Z,1.27
2023-08-15T09:03:09.830Z,1.10
2023-08-15T09:05:37.048Z,0.60
2023-08-15T09:08:03.669Z,0.50
2023-08-15T09:10:30.101Z,0.40
2023-08-15T09:13:01.184Z,0.52
2023-08-15T09:15:28.281Z,0.40
2023-08-15T09:18:00.962Z,0.30
2023-08-15T09:20:28.521Z,0.40
2023-08-15T09:22:59.279Z,0.22
2023-08-15T09:25:27.730Z,0.30
2023-08-15T09:27:54.946Z,0.30
2023-08-15T09:30:22.608Z,0.30
2023-08-15T09:32:49.795Z,0.30
2023-08-15T09:35:19.581Z,0.30
2023-08-15T09:40:18.876Z,0.40
2023-08-15T09:42:46.347Z,0.30
2023-08-15T09:45:14.767Z,0.30
2023-08-15T09:47:42.070Z,0.40
2023-08-15T09:50:10.195Z,0.28
2023-08-15T09:52:40.256Z,0.30
2023-08-15T09:55:12.312Z,0.30
2023-08-15T09:57:40.374Z,0.20
2023-08-15T10:00:13.206Z,0.20
2023-08-15T10:02:46.453Z,0.22
2023-08-15T10:05:14.197Z,0.20
2023-08-15T10:07:43.127Z,0.25
2023-08-15T10:10:10.396Z,0.30
2023-08-15T10:12:40.215Z,0.10
2023-08-15T10:17:34.615Z,0.20
2023-08-15T10:20:12.093Z,0.10
2023-08-15T10:22:41.593Z,0.40
2023-08-15T10:25:23.208Z,0.30
2023-08-15T10:27:51.617Z,0.15
2023-08-15T10:30:31.453Z,0.30
2023-08-15T10:33:05.161Z,0.10
2023-08-15T10:35:33.301Z,0.28
2023-08-15T10:37:59.793Z,0.10
2023-08-15T10:40:39.997Z,0.20
2023-08-15T10:43:08.932Z,0.20
2023-08-15T10:45:44.483Z,0.20
2023-08-15T10:48:11.636Z,0.40
2023-08-15T10:50:44.554Z,0.30
2023-08-15T10:53:11.243Z,0.30
2023-08-15T10:55:39.522Z,0.30
2023-08-15T10:58:11.543Z,0.40
2023-08-15T11:00:37.915Z,0.40
2023-08-15T11:03:05.213Z,0.30
2023-08-15T11:05:31.931Z,0.40
2023-08-15T11:08:14.414Z,0.40
2023-08-15T11:10:50.397Z,0.40
2023-08-15T11:13:18.110Z,0.50
2023-08-15T11:15:46.213Z,0.47
2023-08-15T11:18:22.044Z,0.38
2023-08-15T11:20:49.370Z,0.60
2023-08-15T11:23:16.560Z,0.40
2023-08-15T11:25:43.029Z,0.47
2023-08-15T11:28:09.440Z,0.57
2023-08-15T11:30:36.175Z,0.43
2023-08-15T11:33:04.145Z,0.50
2023-08-15T11:35:30.937Z,0.50
2023-08-15T11:38:00.151Z,0.50
2023-08-15T11:40:26.582Z,0.60
2023-08-15T11:42:54.518Z,0.50
2023-08-15T11:45:23.910Z,0.68
2023-08-15T11:48:02.225Z,0.98
2023-08-15T11:50:43.504Z,0.80
2023-08-15T11:53:20.309Z,0.85
2023-08-15T11:55:47.911Z,0.70
2023-08-15T11:58:35.205Z,0.85
2023-08-15T12:01:06.418Z,0.75
2023-08-15T12:03:34.982Z,0.85
2023-08-15T12:06:06.124Z,0.98
2023-08-15T12:08:33.619Z,0.75
2023-08-15T12:11:05.107Z,0.60
2023-08-15T12:13:39.719Z,1.00
2023-08-15T12:16:08.326Z,0.73
2023-08-15T12:18:35.676Z,0.90
2023-08-15T12:21:05.636Z,0.80
2023-08-15T12:23:32.072Z,0.88
2023-08-15T12:25:58.507Z,0.90
2023-08-15T12:28:25.036Z,0.82
2023-08-15T12:30:55.733Z,0.70
2023-08-15T12:35:53.719Z,0.68
2023-08-15T12:38:20.164Z,1.00
2023-08-15T12:40:46.985Z,1.10
2023-08-15T12:43:13.724Z,1.00
2023-08-15T12:45:40.236Z,0.75
2023-08-15T12:48:07.220Z,1.25
2023-08-15T12:50:33.761Z,1.05
2023-08-15T12:53:00.156Z,1.00
2023-08-15T12:55:26.604Z,0.95
2023-08-15T12:57:53.085Z,1.08
2023-08-15T13:00:19.527Z,0.90
2023-08-15T13:02:46.026Z,1.10
2023-08-15T13:05:12.659Z,0.93
2023-08-15T13:07:39.976Z,0.93
2023-08-15T13:10:06.747Z,0.90
2023-08-15T13:12:33.779Z,1.10
2023-08-15T13:15:00.237Z,0.95
2023-08-15T13:17:26.707Z,0.80
2023-08-15T13:19:53.068Z,1.02
2023-08-15T13:22:19.842Z,1.00
2023-08-15T13:24:46.750Z,0.98
2023-08-15T13:27:13.624Z,0.90
2023-08-15T13:29:39.988Z,0.88
2023-08-15T13:32:06.503Z,1.10
2023-08-15T13:34:32.959Z,0.90
2023-08-15T13:36:59.924Z,1.10
2023-08-15T13:39:26.315Z,1.00
2023-08-15T13:41:53.061Z,0.85
2023-08-15T13:44:19.465Z,0.90
2023-08-15T13:46:46.249Z,1.10
2023-08-15T13:49:12.792Z,0.88
2023-08-15T13:51:40.585Z,1.30
2023-08-15T13:54:08.077Z,1.07
2023-08-15T13:56:34.575Z,1.20
2023-08-15T13:59:01.009Z,1.10
2023-08-15T14:01:27.486Z,1.15
2023-08-15T14:03:54.279Z,1.20
2023-08-15T14:06:20.693Z,1.10
2023-08-15T14:08:47.136Z,1.20
2023-08-15T14:11:13.772Z,1.48
2023-08-15T14:13:40.272Z,1.10
2023-08-15T14:16:07.137Z,0.98
2023-08-15T14:18:33.726Z,1.10
2023-08-15T14:21:00.199Z,1.25
2023-08-15T14:23:26.616Z,0.90
2023-08-15T14:25:53.029Z,1.20
2023-08-15T14:28:19.494Z,1.27
2023-08-15T14:30:46.411Z,1.20
2023-08-15T14:33:13.063Z,1.23
2023-08-15T14:35:39.619Z,1.00
2023-08-15T14:38:06.125Z,1.30
2023-08-15T14:40:32.726Z,1.33
2023-08-15T14:42:59.148Z,1.17
2023-08-15T14:45:25.533Z,1.20
2023-08-15T14:47:52.010Z,1.30
2023-08-15T14:50:18.537Z,1.45
2023-08-15T14:52:45.049Z,1.50
2023-08-15T14:55:14.834Z,1.48
2023-08-15T15:00:09.754Z,1.60
2023-08-15T15:02:38.477Z,1.30
2023-08-15T15:05:06.592Z,1.30
2023-08-15T15:07:33.264Z,1.27
2023-08-15T15:10:01.320Z,1.60
2023-08-15T15:12:29.126Z,1.23
2023-08-15T15:14:58.234Z,1.23
2023-08-15T15:17:25.692Z,1.80
2023-08-15T15:19:52.299Z,2.13
2023-08-15T15:22:19.382Z,2.13
2023-08-15T15:24:45.829Z,1.60
2023-08-15T15:27:12.254Z,1.33
2023-08-15T15:29:38.675Z,1.52
2023-08-15T15:32:05.650Z,1.48
2023-08-15T15:34:32.313Z,1.90
2023-08-15T15:36:58.710Z,1.52
2023-08-15T15:39:28.865Z,1.70
2023-08-15T15:41:58.717Z,1.70
2023-08-15T15:46:55.177Z,1.67
2023-08-15T15:49:22.627Z,1.50
2023-08-15T15:51:49.062Z,1.58
2023-08-15T15:54:15.510Z,1.83
2023-08-15T15:56:41.940Z,1.60
2023-08-15T15:59:08.388Z,2.10
2023-08-15T16:01:34.962Z,1.60
2023-08-15T16:04:01.432Z,1.70
2023-08-15T16:06:28.277Z,1.73
2023-08-15T16:08:56.310Z,2.03
2023-08-15T16:11:22.775Z,1.52
2023-08-15T16:13:49.175Z,1.65
2023-08-15T16:16:15.659Z,1.92
2023-08-15T16:18:42.071Z,1.45
2023-08-15T16:21:08.540Z,1.83
2023-08-15T16:23:35.632Z,1.70
2023-08-15T16:26:02.146Z,1.67
2023-08-15T16:28:28.584Z,1.80
2023-08-15T16:30:55.024Z,1.27
2023-08-15T16:33:21.480Z,1.65
2023-08-15T16:35:47.947Z,1.92
2023-08-15T16:38:16.025Z,1.48
2023-08-15T16:40:43.529Z,1.40
2023-08-15T16:43:16.967Z,1.90
2023-08-15T16:45:45.587Z,1.88
2023-08-15T16:48:12.217Z,1.88
2023-08-15T16:50:40.311Z,1.98
2023-08-15T16:53:07.130Z,2.00
2023-08-15T16:55:33.728Z,1.45
2023-08-15T16:58:00.554Z,1.90
2023-08-15T17:00:28.880Z,1.95
2023-08-15T17:02:56.773Z,1.85
2023-08-15T17:05:24.034Z,1.83
2023-08-15T17:07:50.482Z,1.70
2023-08-15T17:10:17.880Z,1.55
2023-08-15T17:12:44.570Z,1.63
2023-08-15T17:15:11.966Z,2.03
2023-08-15T17:17:38.445Z,1.77
2023-08-15T17:20:06.297Z,1.88
2023-08-15T17:22:35.326Z,1.63
2023-08-15T17:25:01.891Z,2.05
2023-08-15T17:27:28.352Z,1.73
2023-08-15T17:29:56.324Z,1.75
2023-08-15T17:32:23.707Z,1.80
2023-08-15T17:34:50.541Z,1.80
2023-08-15T17:37:16.970Z,1.63
2023-08-15T17:39:43.318Z,2.00
2023-08-15T17:42:09.730Z,1.63
2023-08-15T17:44:36.151Z,1.55
2023-08-15T17:47:02.943Z,1.63
2023-08-15T17:49:29.444Z,1.52
2023-08-15T17:51:56.083Z,1.88
2023-08-15T17:54:22.506Z,1.95
2023-08-15T17:56:48.906Z,1.73
2023-08-15T17:59:15.261Z,1.90
2023-08-15T18:01:42.650Z,1.83
2023-08-15T18:04:09.260Z,2.13
2023-08-15T18:06:36.435Z,1.75
2023-08-15T18:09:05.713Z,2.38
2023-08-15T18:11:32.468Z,1.80
2023-08-15T18:14:00.992Z,1.98
2023-08-15T18:16:27.874Z,2.40
2023-08-15T18:18:55.099Z,2.47
2023-08-15T18:21:21.511Z,2.38
2023-08-15T18:23:48.009Z,2.20
2023-08-15T18:26:14.437Z,2.47
2023-08-15T18:28:40.795Z,2.13
2023-08-15T18:31:07.190Z,2.63
2023-08-15T18:33:34.055Z,2.50
2023-08-15T18:36:00.750Z,2.83
2023-08-15T18:38:36.435Z,2.33
2023-08-15T18:41:02.813Z,2.10
2023-08-15T18:43:29.369Z,2.45
2023-08-15T18:45:55.892Z,2.55
2023-08-15T18:48:24.329Z,2.38
2023-08-15T18:50:50.824Z,2.70
2023-08-15T18:53:17.206Z,2.40
2023-08-15T18:55:44.072Z,2.72
2023-08-15T18:58:11.443Z,2.17
2023-08-15T19:00:41.567Z,1.95
2023-08-15T19:03:09.067Z,2.33
2023-08-15T19:05:35.695Z,2.28
2023-08-15T19:08:02.469Z,2.50
2023-08-15T19:10:28.917Z,2.10
2023-08-15T19:12:55.320Z,2.25
2023-08-15T19:15:22.585Z,2.15
2023-08-15T19:17:49.759Z,2.10
2023-08-15T19:20:21.907Z,2.40
2023-08-15T19:22:48.849Z,2.25
2023-08-15T19:25:16.629Z,2.80
2023-08-15T19:27:43.140Z,2.17
2023-08-15T19:30:10.076Z,2.47
2023-08-15T19:32:36.581Z,2.50
2023-08-15T19:35:04.531Z,2.70
2023-08-15T19:37:37.747Z,2.58
2023-08-15T19:40:08.257Z,2.42
2023-08-15T19:45:06.034Z,2.45
2023-08-15T19:47:32.425Z,2.88
2023-08-15T19:49:59.794Z,2.70
2023-08-15T19:52:26.453Z,2.47
2023-08-15T19:54:53.119Z,2.67
2023-08-15T19:57:19.562Z,2.83
2023-08-15T19:59:46.273Z,2.80
2023-08-15T20:02:14.444Z,3.15
2023-08-15T20:04:41.423Z,2.58
2023-08-15T20:07:07.962Z,2.65
2023-08-15T20:09:34.398Z,2.63
2023-08-15T20:12:00.879Z,2.22
2023-08-15T20:14:28.737Z,2.63
2023-08-15T20:16:55.402Z,2.60
2023-08-15T20:19:21.989Z,2.78
2023-08-15T20:21:49.143Z,2.70
2023-08-15T20:24:15.600Z,2.80
2023-08-15T20:26:41.975Z,2.58
2023-08-15T20:29:08.474Z,3.03
2023-08-15T20:31:35.193Z,2.65
2023-08-15T20:34:01.741Z,2.63
2023-08-15T20:36:28.228Z,2.75
2023-08-15T20:38:54.689Z,2.90
2023-08-15T20:41:21.263Z,2.67
2023-08-15T20:43:47.688Z,2.58
2023-08-15T20:46:14.082Z,2.60
2023-08-15T20:48:40.530Z,2.35
2023-08-15T20:51:07.113Z,2.00
2023-08-15T20:53:33.488Z,2.63
2023-08-15T20:55:59.911Z,2.30
2023-08-15T20:58:26.363Z,2.10
2023-08-15T21:00:53.074Z,2.08
2023-08-15T21:03:19.613Z,1.95
2023-08-15T21:05:46.080Z,1.85
2023-08-15T21:08:12.478Z,2.15
2023-08-15T21:10:38.874Z,1.67
2023-08-15T21:13:05.325Z,1.67
2023-08-15T21:15:31.919Z,1.98
2023-08-15T21:17:58.465Z,1.77
2023-08-15T21:20:24.854Z,1.58
2023-08-15T21:22:51.509Z,2.00
2023-08-15T21:25:17.961Z,1.60
2023-08-15T21:27:44.357Z,1.70
2023-08-15T21:30:11.222Z,1.27
2023-08-15T21:32:37.694Z,1.60
2023-08-15T21:35:04.510Z,1.98
2023-08-15T21:37:30.928Z,1.95
2023-08-15T21:39:57.477Z,1.88
2023-08-15T21:42:24.729Z,1.90
2023-08-15T21:44:51.209Z,1.98
2023-08-15T21:47:17.576Z,1.95
2023-08-15T21:49:43.970Z,1.75
2023-08-15T21:52:10.341Z,2.35
2023-08-15T21:54:36.704Z,2.00
2023-08-15T21:57:06.395Z,2.20
2023-08-15T21:59:33.772Z,1.92
2023-08-15T22:02:00.979Z,1.88
2023-08-15T22:04:27.736Z,2.20
2023-08-15T22:06:54.329Z,1.65
2023-08-15T22:09:21.207Z,1.90
2023-08-15T22:11:47.670Z,1.83
2023-08-15T22:14:17.806Z,1.65
2023-08-15T22:16:44.878Z,1.70
2023-08-15T22:19:11.480Z,1.63
2023-08-15T22:21:37.942Z,1.83
2023-08-15T22:24:04.848Z,1.63
2023-08-15T22:26:31.250Z,1.55
2023-08-15T22:28:57.712Z,1.60
2023-08-15T22:31:24.135Z,1.80
2023-08-15T22:33:50.554Z,1.65
2023-08-15T22:36:16.987Z,1.70
2023-08-15T22:38:43.362Z,1.60
2023-08-15T22:41:09.740Z,1.77
2023-08-15T22:43:36.127Z,2.10
2023-08-15T22:46:02.578Z,2.08
2023-08-15T22:48:28.971Z,1.73
2023-08-15T22:50:55.409Z,2.00
2023-08-15T22:53:21.803Z,1.75
2023-08-15T22:55:48.217Z,1.98
2023-08-15T22:58:15.186Z,1.65
2023-08-15T23:00:41.626Z,1.77
2023-08-15T23:03:08.050Z,1.60
2023-08-15T23:05:34.829Z,1.27
2023-08-15T23:08:01.225Z,1.67
2023-08-15T23:10:27.612Z,1.42
2023-08-15T23:12:53.977Z,1.52
2023-08-15T23:15:20.456Z,1.67
2023-08-15T23:17:46.874Z,1.75
2023-08-15T23:20:13.305Z,1.23
2023-08-15T23:22:39.700Z,1.35
2023-08-15T23:25:07.841Z,1.73
2023-08-15T23:27:34.990Z,1.40
2023-08-15T23:30:02.760Z,1.67
2023-08-15T23:32:29.240Z,1.33
2023-08-15T23:34:55.646Z,1.60
2023-08-15T23:37:22.602Z,1.70
2023-08-15T23:39:49.321Z,1.80
2023-08-15T23:42:15.877Z,1.40
2023-08-15T23:44:42.297Z,1.38
2023-08-15T23:47:09.059Z,1.80
2023-08-15T23:49:35.466Z,1.50
2023-08-15T23:52:01.856Z,1.30
2023-08-15T23:54:28.435Z,1.58
2023-08-15T23:56:54.866Z,1.33
2023-08-15T23:59:21.267Z,1.60
